Indian River, New York
Current Conditions -  °F | °C
As of 7:18 AM on Friday 24 Oct 2014 (Local Time) from KGTB Reporting Station
Overcast Overcast  
Wind Chill: 45°   Ceiling: 1400
Heat Index: 45°   Visibility: 10mi
Dew Point: 43°   Wind: 2mph
Humidity: 93%   Direction: 200°SSW
Pressure: 29.92"   Gusts: NA
Location:  43.9554°N, 75.2819°W
Report Text: KGTB 241118Z AUTO 20002KT 10SM OVC014 07/06 A2992 RMK AO2
Loading
Personal Weather Stations






























Interactive Weather Map
Tropical Storm Tracking
New forecast layout! Learn more

10-Day Weather Forecast

Advertisements
Track Severe Weather on mobile